CEB882 PGUM-RPMD
Flight info
| Callsign | CEB882 |
|---|---|
| Flight time | N/A |
| Altitude | 38000 |
| Route | UNZ A450 PIGFA DCT 10N140E 08N138E DCT COTTA DCT AIBIE DCT OLBIE DCT NIBAT |
| Aircraft | A20N/M-SDE2E3FGHIRWXY/LB1 |
Departure
| Time | 2026-04-18 07:45 |
|---|---|
| Airport | Antonio B. Won Pat International Airport (PGUM) |
Arrival
| Time | N/A |
|---|---|
| Airport | Francisco Bangoy International Airport (RPMD) |
| Time | Latitude | Longitude | Altitude | Speed | Heading |
|---|---|---|---|---|---|
| 2026-04-18 07:21 | 13.49165 | 144.80524 | 298 ft | 0 kts | 332° |
| 2026-04-18 07:37 | 13.49162 | 144.80526 | 294 ft | 2 kts | 332° |
| 2026-04-18 07:38 | 13.49150 | 144.80532 | 300 ft | 2 kts | 333° |
| 2026-04-18 07:38 | 13.49135 | 144.80540 | 298 ft | 2 kts | 334° |
| 2026-04-18 07:38 | 13.49120 | 144.80547 | 299 ft | 2 kts | 335° |
| 2026-04-18 07:38 | 13.49105 | 144.80554 | 301 ft | 2 kts | 340° |
| 2026-04-18 07:39 | 13.49089 | 144.80559 | 299 ft | 2 kts | 354° |
| 2026-04-18 07:39 | 13.49074 | 144.80555 | 301 ft | 2 kts | 56° |
| 2026-04-18 07:39 | 13.49071 | 144.80550 | 301 ft | 0 kts | 61° |
| 2026-04-18 07:41 | 13.49077 | 144.80561 | 302 ft | 5 kts | 62° |
| 2026-04-18 07:41 | 13.49111 | 144.80626 | 299 ft | 15 kts | 60° |
| 2026-04-18 07:41 | 13.49166 | 144.80729 | 304 ft | 17 kts | 62° |
| 2026-04-18 07:41 | 13.49217 | 144.80828 | 306 ft | 15 kts | 61° |
| 2026-04-18 07:42 | 13.49265 | 144.80922 | 309 ft | 15 kts | 66° |
| 2026-04-18 07:42 | 13.49247 | 144.80985 | 311 ft | 8 kts | 154° |
| 2026-04-18 07:42 | 13.49185 | 144.80975 | 310 ft | 11 kts | 203° |
| 2026-04-18 07:42 | 13.49108 | 144.80975 | 309 ft | 12 kts | 125° |
| 2026-04-18 07:43 | 13.49114 | 144.81049 | 311 ft | 10 kts | 61° |
| 2026-04-18 07:43 | 13.49152 | 144.81111 | 315 ft | 11 kts | 43° |
| 2026-04-18 07:43 | 13.49189 | 144.81172 | 317 ft | 7 kts | 107° |
| 2026-04-18 07:43 | 13.49171 | 144.81173 | 316 ft | 4 kts | 196° |
| 2026-04-18 07:44 | 13.49147 | 144.81145 | 315 ft | 8 kts | 242° |
| 2026-04-18 07:44 | 13.49118 | 144.81077 | 314 ft | 15 kts | 245° |
| 2026-04-18 07:44 | 13.48974 | 144.80759 | 302 ft | 83 kts | 245° |
| 2026-04-18 07:44 | 13.48657 | 144.80071 | 291 ft | 134 kts | 244° |
| 2026-04-18 07:45 | 13.48202 | 144.79079 | 369 ft | 165 kts | 244° |
| 2026-04-18 07:45 | 13.47787 | 144.78054 | 1010 ft | 153 kts | 246° |
| 2026-04-18 07:45 | 13.47309 | 144.77020 | 1249 ft | 169 kts | 245° |
| 2026-04-18 07:45 | 13.46767 | 144.75890 | 1499 ft | 184 kts | 246° |
| 2026-04-18 07:46 | 13.46177 | 144.74636 | 1625 ft | 209 kts | 244° |
| 2026-04-18 07:46 | 13.45468 | 144.73252 | 1899 ft | 229 kts | 242° |
| 2026-04-18 07:46 | 13.44645 | 144.71773 | 2145 ft | 248 kts | 240° |
| 2026-04-18 07:46 | 13.43729 | 144.70245 | 2636 ft | 253 kts | 239° |
| 2026-04-18 07:47 | 13.42787 | 144.68684 | 3142 ft | 258 kts | 240° |
| 2026-04-18 07:47 | 13.41849 | 144.67112 | 3713 ft | 260 kts | 240° |
| 2026-04-18 07:47 | 13.40909 | 144.65517 | 4269 ft | 261 kts | 240° |
| 2026-04-18 07:47 | 13.39969 | 144.63912 | 4824 ft | 263 kts | 240° |
| 2026-04-18 07:48 | 13.39021 | 144.62285 | 5674 ft | 265 kts | 240° |
| 2026-04-18 07:48 | 13.38074 | 144.60661 | 6673 ft | 267 kts | 240° |
| 2026-04-18 07:48 | 13.37112 | 144.59010 | 7515 ft | 272 kts | 239° |
| 2026-04-18 07:48 | 13.36131 | 144.57327 | 8179 ft | 277 kts | 239° |
| 2026-04-18 07:49 | 13.35133 | 144.55618 | 8522 ft | 281 kts | 239° |
| 2026-04-18 07:49 | 13.33736 | 144.54341 | 8236 ft | 329 kts | 185° |